Astoria, OR (97103)

1:15 AM PST on December 09, 2016 (GMT -0800)
Astoria | | Change Station

Elev 236 ft 46.18 °N, 123.83 °W | Updated 7 seconds ago

Rain
Rain
37.4 °F
Feels Like 37 °F
N
3.0
Wind Variable Wind from ESE

Today
High -- | Low -- °F
--% Chance of Precip.
Yesterday
High -- | Low -- °F
Precip. -- in
Pressure 29.92 in
Visibility 3.0 miles
Clouds Few 600 ft
Mostly Cloudy 3000 ft
Overcast 4400 ft
Windchill 37 °F
Dew Point 36 °F
Humidity 96%
Rainfall 0.18 in
Snow Depth Not available.
7:46 AM 4:29 PM
Waxing Gibbous, 72% visible
SPECI KAST 090908Z AUTO 35007KT 310V020 3SM RA FEW006 BKN030 OVC044 05/02 A2992 RMK AO2 RAB0856 P0005 T00500022 $
Pressure 29.92 in
Visibility 3.0 miles
Clouds Few 600 ft
Mostly Cloudy 3000 ft
Overcast 4400 ft
Windchill 37 °F
Dew Point 36 °F
Humidity 96%
Rainfall 0.18 in
Snow Depth Not available.
7:46 AM 4:29 PM
Waxing Gibbous, 72% visible
SPECI KAST 090908Z AUTO 35007KT 310V020 3SM RA FEW006 BKN030 OVC044 05/02 A2992 RMK AO2 RAB0856 P0005 T00500022 $

10-Day Weather Forecast

Almanac

Astronomy

Dec. 09, 2016 Rise Set
Actual Time
Civil Twilight
Nautical Twilight
Astronomical Twilight
Moon
Length of Visible Light
Length of Day
Tomorrow will be .
, % of the Moon is Illuminated

Today's Extremes

State Highs State Lows

Community

WunderPhotos

Upload Photos

1,956,371 photos uploaded!

WunderBlog® & News

Nearby

Air Quality

  Air Quality AQ Index Pollutant
Not available.

Snow Depth

Station Depth Elevation

Earthquake Activity

City Distance Mag. Time & Date
Minimum magnitude displayed is 2.5.

Coastal Water Temperatures

Place Temperature

Stations

Nearby Weather Stations

Station Location Temp. Windchill Dew Point Humidity Wind Precip. Elev Updated Type
                   

Watches & Warnings

There are currently no watches in effect.